Terminal Aerodrome Forecast
Issued by NWS

Home | Current Version | Previous Version | Graphics & Text | Print | Product List | Glossary On
Versions: 1 2 3 4 5 6 7 8 9 10 11 12 13 14 15 16 17 18 19 20 21
372
FTUS41 KCLE 041121
TAFFDY
TAF
KFDY 041121Z 0412/0512 VRB03KT P6SM OVC035
     FM041300 13007KT P6SM SCT035 OVC100
     FM042200 12007KT 6SM -RASN BR SCT025 OVC040
     FM050000 14007KT 3SM -SN OVC020
     FM050300 22010KT 6SM -SN BR OVC025
     FM050600 26010KT P6SM OVC025=

USA.gov is the U.S. government's official web portal to all federal, state and local government web resources and services.